Time;durP1;ratioP1;P1;durP2;ratioP2;P2;SDS_P1;SDS_P2;PMS_P1;PMS_P2;Temp;Humidity;BMP_temperature;BMP_pressure;BME280_temperature;BME280_humidity;BME280_pressure;Samples;Min_cycle;Max_cycle;Signal;HPM_P1;HPM_P2
2023/05/29 00:00:42;;;;;;;;;;;18.60;65.30;;;;;;5038776;28;880;-72
2023/05/29 00:03:09;;;;;;;;;;;18.60;65.30;;;;;;5042442;28;1347;-71
2023/05/29 00:05:34;;;;;;;;;;;18.60;65.30;;;;;;5026991;28;908;-71
2023/05/29 00:08:00;;;;;;;;;;;18.60;65.30;;;;;;5046805;28;1030;-71
2023/05/29 00:10:25;;;;;;;;;;;18.60;65.30;;;;;;5038616;28;804;-71
2023/05/29 00:12:51;;;;;;;;;;;18.60;65.30;;;;;;5044899;28;1963;-71
2023/05/29 00:15:17;;;;;;;;;;;18.60;65.30;;;;;;5044115;28;871;-72
2023/05/29 00:17:43;;;;;;;;;;;18.60;65.40;;;;;;5027410;28;904;-71
2023/05/29 00:20:11;;;;;;;;;;;18.60;65.40;;;;;;5041696;28;887;-71
2023/05/29 00:22:37;;;;;;;;;;;18.60;65.40;;;;;;5041304;28;1327;-71
2023/05/29 00:25:07;;;;;;;;;;;18.60;65.40;;;;;;5026713;28;797;-72
2023/05/29 00:27:32;;;;;;;;;;;18.60;65.40;;;;;;5037660;28;854;-72
2023/05/29 00:29:58;;;;;;;;;;;18.60;65.40;;;;;;5039761;28;963;-71
2023/05/29 00:32:24;;;;;;;;;;;18.60;65.40;;;;;;5044126;28;1918;-72
2023/05/29 00:34:50;;;;;;;;;;;18.60;65.40;;;;;;5032642;28;1384;-72
2023/05/29 00:37:15;;;;;;;;;;;18.60;65.40;;;;;;5036059;28;1474;-73
2023/05/29 00:39:41;;;;;;;;;;;18.60;65.40;;;;;;5044679;28;819;-73
2023/05/29 00:42:06;;;;;;;;;;;18.60;65.40;;;;;;5036410;28;1374;-73
2023/05/29 00:44:31;;;;;;;;;;;18.60;65.40;;;;;;5041790;28;800;-74
2023/05/29 00:46:58;;;;;;;;;;;18.60;65.50;;;;;;5037471;28;888;-73
2023/05/29 00:49:24;;;;;;;;;;;18.60;65.40;;;;;;5021165;28;892;-74
2023/05/29 00:51:50;;;;;;;;;;;18.60;65.50;;;;;;5038398;28;1977;-73
2023/05/29 00:54:17;;;;;;;;;;;18.60;65.50;;;;;;5039057;28;801;-73
2023/05/29 00:56:43;;;;;;;;;;;18.60;65.50;;;;;;5035218;28;919;-74
2023/05/29 00:59:09;;;;;;;;;;;18.60;65.50;;;;;;5026921;28;897;-73
2023/05/29 01:01:35;;;;;;;;;;;18.60;65.50;;;;;;5039638;28;812;-71
2023/05/29 01:04:01;;;;;;;;;;;18.60;65.50;;;;;;5021525;28;1402;-72
2023/05/29 01:06:26;;;;;;;;;;;18.60;65.50;;;;;;5021135;28;1022;-72
2023/05/29 01:08:52;;;;;;;;;;;18.60;65.50;;;;;;5040269;28;847;-73
2023/05/29 01:11:26;;;;;;;;;;;18.60;65.50;;;;;;5041652;28;1986;-73
2023/05/29 01:13:52;;;;;;;;;;;18.60;65.50;;;;;;5028577;28;1263;-75
2023/05/29 01:16:37;;;;;;;;;;;18.60;65.50;;;;;;5040811;28;796;-76
2023/05/29 01:19:35;;;;;;;;;;;18.60;65.50;;;;;;5038354;28;887;-75
2023/05/29 01:22:16;;;;;;;;;;;18.60;65.50;;;;;;4995241;28;1256;-75
2023/05/29 01:24:41;;;;;;;;;;;18.60;65.50;;;;;;5024526;28;898;-75
2023/05/29 01:27:08;;;;;;;;;;;18.60;65.50;;;;;;5038247;28;987;-75
2023/05/29 01:29:34;;;;;;;;;;;18.60;65.50;;;;;;5025204;28;1177;-73
2023/05/29 01:32:01;;;;;;;;;;;18.60;65.50;;;;;;5039474;28;1890;-74
2023/05/29 01:34:27;;;;;;;;;;;18.60;65.60;;;;;;5040346;28;1453;-74
2023/05/29 01:36:52;;;;;;;;;;;18.60;65.60;;;;;;5034364;28;837;-74
2023/05/29 01:39:18;;;;;;;;;;;18.60;65.60;;;;;;5037288;28;937;-75
2023/05/29 01:41:44;;;;;;;;;;;18.60;65.60;;;;;;5041604;28;1349;-75
2023/05/29 01:44:09;;;;;;;;;;;18.60;65.60;;;;;;5037793;28;888;-74
2023/05/29 01:46:38;;;;;;;;;;;18.60;65.60;;;;;;5023528;28;1271;-72
2023/05/29 01:49:04;;;;;;;;;;;18.60;65.60;;;;;;5034399;28;1093;-72
2023/05/29 01:51:31;;;;;;;;;;;18.60;65.60;;;;;;5037567;28;1906;-72
2023/05/29 01:53:57;;;;;;;;;;;18.60;65.60;;;;;;5039238;28;1251;-72
2023/05/29 01:56:22;;;;;;;;;;;18.60;65.60;;;;;;5021268;28;1581;-74
2023/05/29 01:58:48;;;;;;;;;;;18.60;65.70;;;;;;5040072;28;856;-72
2023/05/29 02:01:13;;;;;;;;;;;18.60;65.70;;;;;;5039589;28;899;-72
2023/05/29 02:03:39;;;;;;;;;;;18.60;65.60;;;;;;5036861;28;1407;-73
2023/05/29 02:06:04;;;;;;;;;;;18.60;65.60;;;;;;5019097;28;887;-73
2023/05/29 02:08:30;;;;;;;;;;;18.60;65.70;;;;;;5041879;28;898;-74
2023/05/29 02:10:55;;;;;;;;;;;18.60;65.70;;;;;;5038063;28;1914;-74
2023/05/29 02:13:21;;;;;;;;;;;18.60;65.70;;;;;;5042238;28;1430;-74
2023/05/29 02:15:46;;;;;;;;;;;18.60;65.70;;;;;;5040260;28;808;-73
2023/05/29 02:18:17;;;;;;;;;;;18.60;65.70;;;;;;5039375;28;897;-72
2023/05/29 02:20:42;;;;;;;;;;;18.60;65.70;;;;;;5024095;28;828;-72
2023/05/29 02:23:08;;;;;;;;;;;18.60;65.70;;;;;;5039579;28;1360;-72
2023/05/29 02:25:33;;;;;;;;;;;18.60;65.70;;;;;;5039488;28;911;-71
2023/05/29 02:27:59;;;;;;;;;;;18.60;65.70;;;;;;5041867;28;971;-72
2023/05/29 02:30:25;;;;;;;;;;;18.60;65.70;;;;;;5026920;28;797;-72
2023/05/29 02:32:50;;;;;;;;;;;18.60;65.70;;;;;;5045619;28;1906;-73
2023/05/29 02:35:17;;;;;;;;;;;18.60;65.70;;;;;;5042628;28;1120;-73
2023/05/29 02:37:43;;;;;;;;;;;18.60;65.70;;;;;;5034227;28;1483;-72
2023/05/29 02:40:09;;;;;;;;;;;18.60;65.70;;;;;;5043860;28;881;-73
2023/05/29 02:42:35;;;;;;;;;;;18.60;65.70;;;;;;5044357;28;1358;-72
2023/05/29 02:45:00;;;;;;;;;;;18.60;65.70;;;;;;5025000;28;879;-72
2023/05/29 02:47:26;;;;;;;;;;;18.60;65.70;;;;;;5042678;28;987;-72
2023/05/29 02:49:51;;;;;;;;;;;18.60;65.70;;;;;;5042933;28;808;-72
2023/05/29 02:52:17;;;;;;;;;;;18.60;65.70;;;;;;5043943;28;1953;-72
2023/05/29 02:54:42;;;;;;;;;;;18.60;65.80;;;;;;5040347;28;884;-72
2023/05/29 02:57:08;;;;;;;;;;;18.60;65.70;;;;;;5023367;28;816;-72
2023/05/29 02:59:33;;;;;;;;;;;18.50;65.70;;;;;;5041279;28;899;-72
2023/05/29 03:01:59;;;;;;;;;;;18.60;65.70;;;;;;5038508;28;1362;-72
2023/05/29 03:04:24;;;;;;;;;;;18.60;65.80;;;;;;5043344;28;794;-73
2023/05/29 03:06:49;;;;;;;;;;;18.60;65.80;;;;;;5044852;28;867;-73
2023/05/29 03:09:16;;;;;;;;;;;18.60;65.80;;;;;;5044175;28;919;-72
2023/05/29 03:11:41;;;;;;;;;;;18.60;65.80;;;;;;5040610;28;1983;-72
2023/05/29 03:14:07;;;;;;;;;;;18.60;65.80;;;;;;5042953;28;874;-73
2023/05/29 03:16:32;;;;;;;;;;;18.60;65.80;;;;;;5021975;28;917;-72
2023/05/29 03:18:58;;;;;;;;;;;18.60;65.80;;;;;;5036989;28;1014;-73
2023/05/29 03:21:23;;;;;;;;;;;18.50;65.70;;;;;;5041458;28;895;-73
2023/05/29 03:23:49;;;;;;;;;;;18.60;65.80;;;;;;5039664;28;1199;-72
2023/05/29 03:26:15;;;;;;;;;;;18.60;65.80;;;;;;5040921;28;1010;-72
2023/05/29 03:28:41;;;;;;;;;;;18.60;65.80;;;;;;5040011;28;848;-72
2023/05/29 03:31:07;;;;;;;;;;;18.60;65.80;;;;;;5041121;28;1906;-73
2023/05/29 03:33:33;;;;;;;;;;;18.60;65.80;;;;;;5020525;28;1344;-72
2023/05/29 03:35:58;;;;;;;;;;;18.60;65.80;;;;;;5040607;28;888;-72
2023/05/29 03:38:24;;;;;;;;;;;18.60;65.90;;;;;;5040536;28;936;-72
2023/05/29 03:40:49;;;;;;;;;;;18.60;65.80;;;;;;5039231;28;790;-72
2023/05/29 03:43:15;;;;;;;;;;;18.60;65.90;;;;;;5042045;28;1259;-73
2023/05/29 03:45:40;;;;;;;;;;;18.60;65.80;;;;;;5041481;28;801;-72
2023/05/29 03:48:05;;;;;;;;;;;18.60;65.80;;;;;;5043484;28;806;-72
2023/05/29 03:50:31;;;;;;;;;;;18.60;65.80;;;;;;5041872;28;863;-73
2023/05/29 03:52:56;;;;;;;;;;;18.60;65.90;;;;;;5044083;28;2013;-72
2023/05/29 03:55:22;;;;;;;;;;;18.60;65.90;;;;;;5046364;28;917;-72
2023/05/29 03:57:48;;;;;;;;;;;18.60;65.90;;;;;;5020643;28;1021;-72
2023/05/29 04:00:13;;;;;;;;;;;18.60;65.90;;;;;;5041226;28;724;-73
2023/05/29 04:02:39;;;;;;;;;;;18.60;65.90;;;;;;5038714;28;1297;-72
2023/05/29 04:05:05;;;;;;;;;;;18.60;65.90;;;;;;5037311;28;1429;-72
2023/05/29 04:07:30;;;;;;;;;;;18.50;65.80;;;;;;5038250;28;888;-72
2023/05/29 04:09:56;;;;;;;;;;;18.60;65.90;;;;;;5039032;28;887;-72
2023/05/29 04:12:21;;;;;;;;;;;18.60;65.90;;;;;;5037452;28;1902;-72
2023/05/29 04:14:47;;;;;;;;;;;18.60;66.00;;;;;;5040479;28;889;-72
2023/05/29 04:17:12;;;;;;;;;;;18.60;65.90;;;;;;5040523;28;809;-73
2023/05/29 04:19:38;;;;;;;;;;;18.60;65.90;;;;;;5037596;28;944;-74
2023/05/29 04:22:03;;;;;;;;;;;18.60;65.90;;;;;;5039355;28;1679;-72
2023/05/29 04:24:31;;;;;;;;;;;18.50;65.90;;;;;;5020482;28;802;-73
2023/05/29 04:26:57;;;;;;;;;;;18.60;65.90;;;;;;5024262;28;899;-73
2023/05/29 04:29:22;;;;;;;;;;;18.60;65.90;;;;;;5035652;28;911;-72
2023/05/29 04:31:48;;;;;;;;;;;18.60;65.90;;;;;;5037930;28;1961;-72
2023/05/29 04:34:16;;;;;;;;;;;18.60;65.90;;;;;;5035959;28;1457;-72
2023/05/29 04:36:45;;;;;;;;;;;18.60;66.00;;;;;;5036380;28;800;-72
2023/05/29 04:39:11;;;;;;;;;;;18.60;65.90;;;;;;5042291;28;1328;-73
2023/05/29 04:41:37;;;;;;;;;;;18.60;66.00;;;;;;5040479;28;816;-72
2023/05/29 04:44:04;;;;;;;;;;;18.60;66.00;;;;;;5041042;28;1327;-72
2023/05/29 04:46:29;;;;;;;;;;;18.60;66.00;;;;;;5036043;28;868;-73
2023/05/29 04:48:55;;;;;;;;;;;18.60;65.90;;;;;;5035306;28;947;-73
2023/05/29 04:51:21;;;;;;;;;;;18.60;66.00;;;;;;5038854;28;1938;-73
2023/05/29 04:53:47;;;;;;;;;;;18.60;66.00;;;;;;5039406;28;1310;-73
2023/05/29 04:56:15;;;;;;;;;;;18.60;66.00;;;;;;5032950;28;802;-73
2023/05/29 04:58:41;;;;;;;;;;;18.60;66.00;;;;;;5037550;28;904;-73
2023/05/29 05:01:08;;;;;;;;;;;18.60;66.00;;;;;;5021327;28;863;-73
2023/05/29 05:03:33;;;;;;;;;;;18.60;66.00;;;;;;5034729;28;1546;-73
2023/05/29 05:06:02;;;;;;;;;;;18.60;66.00;;;;;;5039107;28;810;-73
2023/05/29 05:08:32;;;;;;;;;;;18.60;66.00;;;;;;5023963;28;824;-73
2023/05/29 05:10:58;;;;;;;;;;;18.60;66.00;;;;;;5038993;28;1918;-73
2023/05/29 05:13:24;;;;;;;;;;;18.60;66.00;;;;;;5036803;28;1263;-73
2023/05/29 05:15:49;;;;;;;;;;;18.60;66.00;;;;;;5016958;28;965;-73
2023/05/29 05:18:15;;;;;;;;;;;18.60;66.00;;;;;;5037733;28;871;-73
2023/05/29 05:20:40;;;;;;;;;;;18.60;66.00;;;;;;5039817;28;828;-73
2023/05/29 05:23:06;;;;;;;;;;;18.60;66.00;;;;;;5039583;28;1375;-73
2023/05/29 05:25:33;;;;;;;;;;;18.60;66.00;;;;;;5041635;28;1628;-72
2023/05/29 05:27:58;;;;;;;;;;;18.60;66.00;;;;;;5022597;28;924;-73
2023/05/29 05:30:24;;;;;;;;;;;18.60;66.00;;;;;;5040026;28;1086;-73
2023/05/29 05:32:49;;;;;;;;;;;18.60;66.00;;;;;;5037264;28;1894;-73
2023/05/29 05:35:15;;;;;;;;;;;18.60;66.00;;;;;;5041127;28;975;-73
2023/05/29 05:37:41;;;;;;;;;;;18.60;66.00;;;;;;5036777;28;915;-73
2023/05/29 05:40:07;;;;;;;;;;;18.60;66.10;;;;;;5036913;28;956;-73
2023/05/29 05:42:33;;;;;;;;;;;18.60;66.10;;;;;;5035532;28;1335;-73
2023/05/29 05:44:58;;;;;;;;;;;18.60;66.10;;;;;;5034706;28;792;-72
2023/05/29 05:47:24;;;;;;;;;;;18.60;66.10;;;;;;5038354;28;880;-72
2023/05/29 05:49:52;;;;;;;;;;;18.60;66.10;;;;;;5033431;28;1018;-72
2023/05/29 05:52:17;;;;;;;;;;;18.60;66.10;;;;;;5038293;28;1890;-72
2023/05/29 05:54:43;;;;;;;;;;;18.60;66.00;;;;;;5037915;28;879;-72
2023/05/29 05:57:08;;;;;;;;;;;18.60;66.10;;;;;;5037815;28;1642;-72
2023/05/29 05:59:34;;;;;;;;;;;18.60;66.10;;;;;;5037240;28;812;-72
2023/05/29 06:01:59;;;;;;;;;;;18.60;66.10;;;;;;5036074;28;1237;-72
2023/05/29 06:04:25;;;;;;;;;;;18.60;66.10;;;;;;5043374;28;808;-72
2023/05/29 06:06:51;;;;;;;;;;;18.60;66.10;;;;;;5039248;28;867;-72
2023/05/29 06:09:16;;;;;;;;;;;18.60;66.20;;;;;;5038092;28;836;-72
2023/05/29 06:11:42;;;;;;;;;;;18.60;66.10;;;;;;5034496;28;1910;-72
2023/05/29 06:14:07;;;;;;;;;;;18.60;66.20;;;;;;5035958;28;2111;-74
2023/05/29 06:16:34;;;;;;;;;;;18.60;66.10;;;;;;5011537;28;1816;-69
2023/05/29 06:18:59;;;;;;;;;;;18.60;66.20;;;;;;5022024;28;4689;-69
2023/05/29 06:21:25;;;;;;;;;;;18.60;66.20;;;;;;5033694;28;881;-69
2023/05/29 06:23:51;;;;;;;;;;;18.60;66.10;;;;;;5039587;28;1284;-70
2023/05/29 06:26:16;;;;;;;;;;;18.60;66.20;;;;;;5038239;28;1736;-68
2023/05/29 06:28:42;;;;;;;;;;;18.60;66.20;;;;;;5035534;28;1096;-69
2023/05/29 06:31:07;;;;;;;;;;;18.60;66.20;;;;;;5032659;28;1971;-70
2023/05/29 06:33:32;;;;;;;;;;;18.60;66.10;;;;;;5039128;28;1286;-70
2023/05/29 06:35:58;;;;;;;;;;;18.60;66.20;;;;;;5040129;28;843;-69
2023/05/29 06:38:23;;;;;;;;;;;18.60;66.20;;;;;;5031387;28;1707;-70
2023/05/29 06:40:49;;;;;;;;;;;18.60;66.20;;;;;;5035180;28;1315;-68
2023/05/29 06:43:14;;;;;;;;;;;18.60;66.20;;;;;;5043359;28;1384;-69
2023/05/29 06:45:40;;;;;;;;;;;18.60;66.20;;;;;;5037146;28;871;-69
2023/05/29 06:48:06;;;;;;;;;;;18.60;66.20;;;;;;5034780;28;879;-71
2023/05/29 06:50:31;;;;;;;;;;;18.60;66.20;;;;;;5035827;28;899;-70
2023/05/29 06:52:57;;;;;;;;;;;18.60;67.00;;;;;;5036409;28;1891;-70
2023/05/29 06:55:22;;;;;;;;;;;18.60;66.20;;;;;;5036908;28;805;-70
2023/05/29 06:57:48;;;;;;;;;;;18.60;66.20;;;;;;5044445;28;1536;-71
2023/05/29 07:00:13;;;;;;;;;;;18.60;66.20;;;;;;5037718;28;2037;-73
2023/05/29 07:02:39;;;;;;;;;;;18.60;66.20;;;;;;5040960;28;1284;-72
2023/05/29 07:05:05;;;;;;;;;;;18.60;66.20;;;;;;5035661;28;1786;-73
2023/05/29 07:07:31;;;;;;;;;;;18.60;66.20;;;;;;5037709;28;1013;-72
2023/05/29 07:09:56;;;;;;;;;;;18.60;66.20;;;;;;5021155;28;919;-72
2023/05/29 07:12:22;;;;;;;;;;;18.60;66.30;;;;;;5042427;28;1966;-71
2023/05/29 07:14:48;;;;;;;;;;;18.60;66.20;;;;;;5024185;28;892;-70
2023/05/29 07:17:13;;;;;;;;;;;18.60;66.20;;;;;;5037527;28;1268;-71
2023/05/29 07:19:39;;;;;;;;;;;18.60;66.20;;;;;;5041231;28;783;-71
2023/05/29 07:22:04;;;;;;;;;;;18.60;66.20;;;;;;5043069;28;1275;-70
2023/05/29 07:24:30;;;;;;;;;;;18.60;67.00;;;;;;5039838;28;868;-72
2023/05/29 07:26:55;;;;;;;;;;;18.60;66.20;;;;;;5037531;28;1580;-72
2023/05/29 07:29:23;;;;;;;;;;;18.60;66.20;;;;;;5034967;28;1531;-72
2023/05/29 07:31:49;;;;;;;;;;;18.60;66.20;;;;;;5031202;28;1969;-71
2023/05/29 07:34:14;;;;;;;;;;;18.60;66.20;;;;;;5036413;28;1937;-71
2023/05/29 07:36:55;;;;;;;;;;;18.60;66.20;;;;;;5040130;28;1404;-71
2023/05/29 07:39:21;;;;;;;;;;;18.60;66.20;;;;;;5042134;28;1241;-72
2023/05/29 07:41:46;;;;;;;;;;;18.60;66.20;;;;;;5039710;28;2512;-70
2023/05/29 07:44:12;;;;;;;;;;;18.60;66.30;;;;;;5041163;28;1738;-72
2023/05/29 07:46:37;;;;;;;;;;;18.60;66.20;;;;;;5037558;28;1073;-72
2023/05/29 07:49:03;;;;;;;;;;;18.60;66.30;;;;;;5039752;28;1073;-72
2023/05/29 07:51:28;;;;;;;;;;;18.60;66.20;;;;;;5037286;28;2143;-72
2023/05/29 07:53:54;;;;;;;;;;;18.60;66.20;;;;;;5039325;28;1385;-72
2023/05/29 07:56:19;;;;;;;;;;;18.60;66.30;;;;;;5018499;28;950;-71
2023/05/29 07:58:44;;;;;;;;;;;18.60;66.30;;;;;;5037075;28;1257;-73
2023/05/29 08:01:10;;;;;;;;;;;18.60;66.30;;;;;;5035861;28;873;-72
2023/05/29 08:03:35;;;;;;;;;;;18.60;66.30;;;;;;5036458;28;1615;-73
2023/05/29 08:06:01;;;;;;;;;;;18.60;66.30;;;;;;5041858;28;1500;-73
2023/05/29 08:08:26;;;;;;;;;;;18.60;66.30;;;;;;5039494;28;875;-72
2023/05/29 08:10:52;;;;;;;;;;;18.60;66.30;;;;;;5037744;28;1297;-73
2023/05/29 08:13:17;;;;;;;;;;;18.60;66.30;;;;;;5039473;28;1405;-72
2023/05/29 08:15:43;;;;;;;;;;;18.60;66.30;;;;;;5039380;28;1050;-72
2023/05/29 08:18:08;;;;;;;;;;;18.60;66.30;;;;;;5035935;28;883;-72
2023/05/29 08:20:34;;;;;;;;;;;18.60;66.30;;;;;;5041878;28;851;-72
2023/05/29 08:23:00;;;;;;;;;;;18.60;66.30;;;;;;5040601;28;1247;-72
2023/05/29 08:25:26;;;;;;;;;;;18.60;66.30;;;;;;5019396;28;1610;-72
2023/05/29 08:27:51;;;;;;;;;;;18.60;66.30;;;;;;5036960;28;817;-72
2023/05/29 08:30:17;;;;;;;;;;;18.60;66.30;;;;;;5040447;28;812;-72
2023/05/29 08:32:42;;;;;;;;;;;18.60;66.30;;;;;;5021804;28;1911;-72
2023/05/29 08:35:08;;;;;;;;;;;18.60;66.30;;;;;;5038531;28;1366;-72
2023/05/29 08:37:33;;;;;;;;;;;18.60;66.30;;;;;;5040595;28;1168;-72
2023/05/29 08:39:59;;;;;;;;;;;18.60;66.30;;;;;;5033243;28;1254;-72
2023/05/29 08:42:29;;;;;;;;;;;18.60;66.30;;;;;;5038697;28;1300;-72
2023/05/29 08:44:57;;;;;;;;;;;18.60;66.30;;;;;;5021902;28;844;-72
2023/05/29 08:47:23;;;;;;;;;;;18.60;66.30;;;;;;5038278;28;794;-73
2023/05/29 08:49:51;;;;;;;;;;;18.60;66.50;;;;;;5017955;28;935;-72
2023/05/29 08:52:18;;;;;;;;;;;18.60;66.30;;;;;;5034126;28;1909;-73
2023/05/29 08:54:44;;;;;;;;;;;18.60;66.40;;;;;;5039945;28;943;-72
2023/05/29 08:57:10;;;;;;;;;;;18.60;66.40;;;;;;5020109;28;1077;-71
2023/05/29 08:59:35;;;;;;;;;;;18.60;66.30;;;;;;5019580;28;857;-70
2023/05/29 09:02:01;;;;;;;;;;;18.60;66.30;;;;;;5018837;28;1370;-72
2023/05/29 09:04:28;;;;;;;;;;;18.60;66.40;;;;;;5017117;28;2147;-72
2023/05/29 09:06:55;;;;;;;;;;;18.60;66.30;;;;;;5038261;28;1154;-72
2023/05/29 09:09:20;;;;;;;;;;;18.60;66.40;;;;;;5022023;28;1291;-72
2023/05/29 09:11:46;;;;;;;;;;;18.60;66.40;;;;;;5020884;28;1913;-71
2023/05/29 09:14:32;;;;;;;;;;;18.60;66.40;;;;;;5039666;28;888;-72
2023/05/29 09:16:57;;;;;;;;;;;18.60;66.40;;;;;;5019399;28;895;-72
2023/05/29 09:19:22;;;;;;;;;;;18.60;66.30;;;;;;5038768;28;895;-72
2023/05/29 09:21:48;;;;;;;;;;;18.60;66.40;;;;;;5036181;28;1241;-71
2023/05/29 09:24:13;;;;;;;;;;;18.60;66.40;;;;;;5036706;28;857;-72
2023/05/29 09:26:39;;;;;;;;;;;18.60;66.40;;;;;;5019022;28;958;-72
2023/05/29 09:29:05;;;;;;;;;;;18.60;66.40;;;;;;5017841;28;897;-72
2023/05/29 09:31:30;;;;;;;;;;;18.60;66.40;;;;;;5018356;28;1910;-72
2023/05/29 09:33:56;;;;;;;;;;;18.60;66.40;;;;;;5038202;28;1438;-72
2023/05/29 09:36:22;;;;;;;;;;;18.60;66.40;;;;;;5021190;28;1178;-72
2023/05/29 09:38:47;;;;;;;;;;;18.60;66.40;;;;;;5036004;28;1185;-71
2023/05/29 09:41:13;;;;;;;;;;;18.60;66.40;;;;;;5017859;28;1373;-70
2023/05/29 09:43:39;;;;;;;;;;;18.60;66.40;;;;;;5023810;28;1299;-71
2023/05/29 09:46:06;;;;;;;;;;;18.60;66.40;;;;;;5018845;28;2169;-71
2023/05/29 09:48:32;;;;;;;;;;;18.60;66.40;;;;;;5031101;28;1301;-71
2023/05/29 09:50:57;;;;;;;;;;;18.60;66.40;;;;;;5035695;28;2303;-71
2023/05/29 09:53:28;;;;;;;;;;;18.60;66.40;;;;;;5037504;28;1359;-71
2023/05/29 09:55:59;;;;;;;;;;;18.60;66.40;;;;;;5032721;28;907;-71
2023/05/29 09:58:25;;;;;;;;;;;18.60;66.40;;;;;;5036525;28;856;-71
2023/05/29 10:00:53;;;;;;;;;;;18.60;66.40;;;;;;5018669;28;1200;-71
2023/05/29 10:03:21;;;;;;;;;;;18.60;66.40;;;;;;5022658;28;1264;-71
2023/05/29 10:05:47;;;;;;;;;;;18.60;66.40;;;;;;5039893;28;867;-71
2023/05/29 10:08:13;;;;;;;;;;;18.60;66.40;;;;;;5034265;28;1687;-71
2023/05/29 10:10:40;;;;;;;;;;;18.60;66.40;;;;;;5037185;28;1279;-71
2023/05/29 10:13:05;;;;;;;;;;;18.60;66.40;;;;;;5024899;28;1902;-71
2023/05/29 10:15:31;;;;;;;;;;;18.60;66.40;;;;;;5030572;28;1843;-71
2023/05/29 10:17:57;;;;;;;;;;;18.60;66.50;;;;;;5019604;28;1401;-72
2023/05/29 10:20:22;;;;;;;;;;;18.60;66.50;;;;;;5034390;28;1299;-71
2023/05/29 10:22:49;;;;;;;;;;;18.60;66.50;;;;;;5021334;28;1345;-71
2023/05/29 10:25:16;;;;;;;;;;;18.60;66.50;;;;;;5038005;28;1569;-71
2023/05/29 10:27:41;;;;;;;;;;;18.60;66.40;;;;;;5038333;28;846;-71
2023/05/29 10:30:09;;;;;;;;;;;18.60;66.50;;;;;;5020938;28;869;-72
2023/05/29 10:32:55;;;;;;;;;;;18.60;66.50;;;;;;5017673;28;1899;-70
2023/05/29 10:35:23;;;;;;;;;;;18.60;66.50;;;;;;5038209;28;1423;-72
2023/05/29 10:38:08;;;;;;;;;;;18.60;66.50;;;;;;5041149;28;801;-72
2023/05/29 10:40:34;;;;;;;;;;;18.60;66.50;;;;;;5036696;28;1016;-72
2023/05/29 10:42:59;;;;;;;;;;;18.60;66.50;;;;;;5022822;28;1264;-72
2023/05/29 10:45:27;;;;;;;;;;;18.60;66.60;;;;;;5038953;28;845;-72
2023/05/29 10:47:53;;;;;;;;;;;18.60;66.60;;;;;;5042878;28;851;-72
2023/05/29 10:50:34;;;;;;;;;;;18.60;66.60;;;;;;5045271;28;1010;-73
2023/05/29 10:53:00;;;;;;;;;;;18.60;66.60;;;;;;5025188;28;1967;-71
2023/05/29 10:55:33;;;;;;;;;;;18.60;66.60;;;;;;5019459;28;995;-72
2023/05/29 10:57:58;;;;;;;;;;;18.60;66.60;;;;;;5041736;28;1054;-72
2023/05/29 11:00:24;;;;;;;;;;;18.60;66.50;;;;;;5040984;28;864;-72
2023/05/29 11:02:49;;;;;;;;;;;18.60;66.50;;;;;;5037220;28;1921;-71
2023/05/29 11:05:22;;;;;;;;;;;18.60;66.50;;;;;;5039602;28;1554;-70
2023/05/29 11:07:57;;;;;;;;;;;18.60;66.50;;;;;;5023957;28;1235;-69
2023/05/29 11:10:42;;;;;;;;;;;18.60;66.60;;;;;;5019679;28;888;-69
2023/05/29 11:13:08;;;;;;;;;;;18.60;66.60;;;;;;5025513;28;2186;-69
2023/05/29 11:15:33;;;;;;;;;;;18.60;66.60;;;;;;5021293;28;1370;-70
2023/05/29 11:18:08;;;;;;;;;;;18.60;66.60;;;;;;5037555;28;1030;-70
2023/05/29 11:20:36;;;;;;;;;;;18.60;66.60;;;;;;5040955;28;902;-70
2023/05/29 11:23:08;;;;;;;;;;;18.60;66.60;;;;;;5025511;28;1369;-70
2023/05/29 11:25:36;;;;;;;;;;;18.60;66.60;;;;;;5022448;28;854;-70
2023/05/29 11:28:10;;;;;;;;;;;18.60;66.60;;;;;;5040708;28;851;-69
2023/05/29 11:30:42;;;;;;;;;;;18.60;66.60;;;;;;5021736;28;884;-70
2023/05/29 11:33:08;;;;;;;;;;;18.60;66.60;;;;;;5038291;28;1890;-70
2023/05/29 11:35:33;;;;;;;;;;;18.60;66.60;;;;;;5024126;28;1167;-70
2023/05/29 11:37:59;;;;;;;;;;;18.60;66.60;;;;;;5025896;28;1318;-69
2023/05/29 11:40:24;;;;;;;;;;;18.60;66.60;;;;;;5019913;28;1459;-70
2023/05/29 11:42:50;;;;;;;;;;;18.60;66.60;;;;;;5040668;28;1273;-70
2023/05/29 11:45:19;;;;;;;;;;;18.60;66.60;;;;;;5038613;28;874;-70
2023/05/29 11:47:51;;;;;;;;;;;18.60;66.60;;;;;;5040848;28;841;-69
2023/05/29 11:50:20;;;;;;;;;;;18.60;66.60;;;;;;5040158;28;882;-70
2023/05/29 11:52:46;;;;;;;;;;;18.60;66.60;;;;;;5022743;28;1940;-70
2023/05/29 11:55:12;;;;;;;;;;;18.60;66.60;;;;;;5036720;28;876;-70
2023/05/29 11:57:37;;;;;;;;;;;18.60;66.60;;;;;;5035945;28;1149;-70
2023/05/29 12:00:09;;;;;;;;;;;18.60;66.60;;;;;;5036982;28;809;-70
2023/05/29 12:02:35;;;;;;;;;;;18.60;66.70;;;;;;5033300;28;1219;-70
2023/05/29 12:05:07;;;;;;;;;;;18.60;66.60;;;;;;5035375;28;867;-70
2023/05/29 12:07:33;;;;;;;;;;;18.60;66.70;;;;;;5023115;28;861;-70
2023/05/29 12:10:14;;;;;;;;;;;18.60;66.70;;;;;;5037824;28;857;-70
2023/05/29 12:12:40;;;;;;;;;;;18.60;66.70;;;;;;5022344;28;1906;-70
2023/05/29 12:15:06;;;;;;;;;;;18.60;66.70;;;;;;5020004;28;888;-70
2023/05/29 12:17:35;;;;;;;;;;;18.60;66.70;;;;;;5039493;28;816;-70
2023/05/29 12:20:01;;;;;;;;;;;18.60;66.70;;;;;;5016417;28;880;-69
2023/05/29 12:22:32;;;;;;;;;;;18.60;66.70;;;;;;5039788;28;1251;-69
2023/05/29 12:25:03;;;;;;;;;;;18.60;66.70;;;;;;5018822;28;871;-70
2023/05/29 12:27:28;;;;;;;;;;;18.60;66.70;;;;;;5040055;28;895;-70
2023/05/29 12:30:01;;;;;;;;;;;18.60;66.70;;;;;;5036827;28;891;-70
2023/05/29 12:32:33;;;;;;;;;;;18.60;66.70;;;;;;5038586;28;1886;-70
2023/05/29 12:34:59;;;;;;;;;;;18.60;66.70;;;;;;5037645;28;974;-70
2023/05/29 12:37:25;;;;;;;;;;;18.60;66.70;;;;;;5040199;28;852;-70
2023/05/29 12:40:10;;;;;;;;;;;18.60;66.70;;;;;;5039925;28;836;-70
2023/05/29 12:42:37;;;;;;;;;;;18.60;66.70;;;;;;5035477;28;1829;-70
2023/05/29 12:45:04;;;;;;;;;;;18.60;66.70;;;;;;5036091;28;933;-70
2023/05/29 12:47:29;;;;;;;;;;;18.60;66.70;;;;;;5042714;28;827;-70
2023/05/29 12:49:55;;;;;;;;;;;18.60;66.70;;;;;;5042004;28;924;-69
2023/05/29 12:52:21;;;;;;;;;;;18.60;66.70;;;;;;5042381;28;1978;-70
2023/05/29 12:54:46;;;;;;;;;;;18.60;66.70;;;;;;5024344;28;1471;-69
2023/05/29 12:57:12;;;;;;;;;;;18.60;66.70;;;;;;5022639;28;931;-70
2023/05/29 12:59:37;;;;;;;;;;;18.60;66.70;;;;;;5042720;28;850;-70
2023/05/29 13:02:03;;;;;;;;;;;18.60;66.70;;;;;;5019603;28;1354;-69
2023/05/29 13:04:28;;;;;;;;;;;18.60;66.70;;;;;;5039036;28;915;-69
2023/05/29 13:06:54;;;;;;;;;;;18.60;66.70;;;;;;5022270;28;866;-70
2023/05/29 13:09:20;;;;;;;;;;;18.60;66.70;;;;;;5035183;28;972;-69
2023/05/29 13:11:46;;;;;;;;;;;18.60;66.70;;;;;;5035327;28;1971;-70
2023/05/29 13:14:11;;;;;;;;;;;18.60;66.70;;;;;;5033846;28;844;-70
2023/05/29 13:16:36;;;;;;;;;;;18.60;66.70;;;;;;5037038;28;882;-70
2023/05/29 13:19:02;;;;;;;;;;;18.60;66.70;;;;;;5034783;28;784;-70
2023/05/29 13:21:27;;;;;;;;;;;18.60;66.70;;;;;;5040301;28;833;-70
2023/05/29 13:23:54;;;;;;;;;;;18.60;66.70;;;;;;5035920;28;1304;-70
2023/05/29 13:26:21;;;;;;;;;;;18.60;66.80;;;;;;5040451;28;828;-70
2023/05/29 13:28:47;;;;;;;;;;;18.60;66.70;;;;;;5036512;28;1223;-70
2023/05/29 13:31:12;;;;;;;;;;;18.60;66.70;;;;;;5020612;28;1953;-70
2023/05/29 13:33:38;;;;;;;;;;;18.60;66.70;;;;;;5037981;28;1355;-70
2023/05/29 13:36:03;;;;;;;;;;;18.60;66.70;;;;;;5037918;28;867;-69
2023/05/29 13:38:29;;;;;;;;;;;18.60;66.70;;;;;;5035586;28;1236;-70
2023/05/29 13:40:54;;;;;;;;;;;18.60;66.70;;;;;;5035525;28;843;-70
2023/05/29 13:43:20;;;;;;;;;;;18.60;66.70;;;;;;5037133;28;1338;-70
2023/05/29 13:45:45;;;;;;;;;;;18.60;66.70;;;;;;5038096;28;840;-70
2023/05/29 13:48:11;;;;;;;;;;;18.60;66.70;;;;;;5037798;28;1193;-71
2023/05/29 13:50:36;;;;;;;;;;;18.60;66.70;;;;;;5036138;28;900;-70
2023/05/29 13:53:02;;;;;;;;;;;18.60;66.70;;;;;;5018755;28;1906;-69
2023/05/29 13:55:27;;;;;;;;;;;18.60;66.70;;;;;;5017358;28;998;-70
2023/05/29 13:57:53;;;;;;;;;;;18.60;66.70;;;;;;5036697;28;1014;-69
2023/05/29 14:00:18;;;;;;;;;;;18.60;66.70;;;;;;5035869;28;805;-69
2023/05/29 14:02:44;;;;;;;;;;;18.60;66.70;;;;;;5038483;28;1331;-70
2023/05/29 14:05:10;;;;;;;;;;;18.60;66.70;;;;;;5034065;28;1490;-70
2023/05/29 14:07:36;;;;;;;;;;;18.60;66.70;;;;;;5040414;28;899;-70
2023/05/29 14:10:02;;;;;;;;;;;18.60;66.80;;;;;;5044194;28;983;-70
2023/05/29 14:12:27;;;;;;;;;;;18.60;66.80;;;;;;5045753;28;1975;-69
2023/05/29 14:14:53;;;;;;;;;;;18.60;66.80;;;;;;5045490;28;811;-70
2023/05/29 14:17:18;;;;;;;;;;;18.60;66.80;;;;;;5039868;28;911;-70
2023/05/29 14:19:45;;;;;;;;;;;18.60;66.80;;;;;;5038636;28;856;-70
2023/05/29 14:22:11;;;;;;;;;;;18.60;67.50;;;;;;5039848;28;1276;-69
2023/05/29 14:24:36;;;;;;;;;;;18.60;66.80;;;;;;5041314;28;814;-71
2023/05/29 14:27:02;;;;;;;;;;;18.60;66.80;;;;;;5040041;28;835;-70
2023/05/29 14:29:27;;;;;;;;;;;18.60;66.80;;;;;;5042497;28;1058;-69
2023/05/29 14:31:53;;;;;;;;;;;18.60;66.70;;;;;;5042628;28;1981;-70